Wylie, Texas
Current Conditions -  °F | °C
As of 6:15 AM on Sunday 25 Jan 2015 (Local Time) from KF46 Reporting Station
Clear Clear  
Wind Chill:   Ceiling: Unl
Heat Index:   Visibility: 10mi
Dew Point:   Wind: 5mph
Humidity: 72%   Direction: 260°W
Pressure: 29.93"   Gusts: NA
Location:  33.02°N, 96.51°W
Report Text: KF46 251215Z AUTO 26004KT 10SM CLR 07/02 A2993 RMK AO2 T00700023
Loading
Personal Weather Stations






























Interactive Weather Map New forecast layout! Learn more

10-Day Weather Forecast

Advertisements
Track Severe Weather on mobile